sensor_id;sensor_type;location;lat;lon;timestamp;pressure;altitude;pressure_sealevel;temperature;humidity
64025;BME280;50266;57.446;26.936;2023-05-07T00:00:07;100887.8;;;-1.41;100.0
64025;BME280;50266;57.446;26.936;2023-05-07T00:01:07;100890.94;;;-1.59;100.0
64025;BME280;50266;57.446;26.936;2023-05-07T00:02:07;100891.56;;;-1.62;100.0
64025;BME280;50266;57.446;26.936;2023-05-07T00:03:07;100892.54;;;-1.76;100.0
64025;BME280;50266;57.446;26.936;2023-05-07T00:04:07;100890.8;;;-1.45;100.0
64025;BME280;50266;57.446;26.936;2023-05-07T00:05:07;100887.64;;;-1.12;100.0
64025;BME280;50266;57.446;26.936;2023-05-07T00:06:07;100896.95;;;-1.67;100.0
64025;BME280;50266;57.446;26.936;2023-05-07T00:07:07;100901.14;;;-1.99;100.0
64025;BME280;50266;57.446;26.936;2023-05-07T00:08:07;100897.64;;;-1.96;100.0
64025;BME280;50266;57.446;26.936;2023-05-07T00:09:07;100901.79;;;-1.73;100.0
64025;BME280;50266;57.446;26.936;2023-05-07T00:10:07;100902.23;;;-1.79;100.0
64025;BME280;50266;57.446;26.936;2023-05-07T00:11:07;100902.14;;;-1.96;100.0
64025;BME280;50266;57.446;26.936;2023-05-07T00:12:07;100905.34;;;-1.88;100.0
64025;BME280;50266;57.446;26.936;2023-05-07T00:13:07;100906.38;;;-2.03;100.0
64025;BME280;50266;57.446;26.936;2023-05-07T00:14:07;100906.24;;;-2.05;100.0
64025;BME280;50266;57.446;26.936;2023-05-07T00:15:07;100905.5;;;-1.96;100.0
64025;BME280;50266;57.446;26.936;2023-05-07T00:16:07;100903.88;;;-1.88;100.0
64025;BME280;50266;57.446;26.936;2023-05-07T00:17:07;100907.89;;;-1.89;100.0
64025;BME280;50266;57.446;26.936;2023-05-07T00:18:07;100909.09;;;-1.88;100.0
64025;BME280;50266;57.446;26.936;2023-05-07T00:19:07;100906.6;;;-1.94;100.0
64025;BME280;50266;57.446;26.936;2023-05-07T00:20:07;100909.59;;;-1.54;100.0
64025;BME280;50266;57.446;26.936;2023-05-07T00:21:07;100907.01;;;-1.25;100.0
64025;BME280;50266;57.446;26.936;2023-05-07T00:22:07;100905.79;;;-1.3;100.0
64025;BME280;50266;57.446;26.936;2023-05-07T00:23:07;100903.62;;;-1.38;100.0
64025;BME280;50266;57.446;26.936;2023-05-07T00:24:07;100904.8;;;-1.33;100.0
64025;BME280;50266;57.446;26.936;2023-05-07T00:25:07;100905.73;;;-1.12;100.0
64025;BME280;50266;57.446;26.936;2023-05-07T00:26:07;100902.79;;;-0.93;100.0
64025;BME280;50266;57.446;26.936;2023-05-07T00:27:07;100908.98;;;-1.15;100.0
64025;BME280;50266;57.446;26.936;2023-05-07T00:28:07;100902.27;;;-1.02;100.0
64025;BME280;50266;57.446;26.936;2023-05-07T00:29:07;100903.47;;;-1.08;100.0
64025;BME280;50266;57.446;26.936;2023-05-07T00:30:07;100900.44;;;-1.25;100.0
64025;BME280;50266;57.446;26.936;2023-05-07T00:31:07;100904.5;;;-1.02;100.0
64025;BME280;50266;57.446;26.936;2023-05-07T00:32:07;100896.02;;;-0.79;100.0
64025;BME280;50266;57.446;26.936;2023-05-07T00:33:07;100901.14;;;-0.73;100.0
64025;BME280;50266;57.446;26.936;2023-05-07T00:34:07;100897.78;;;-0.68;100.0
64025;BME280;50266;57.446;26.936;2023-05-07T00:35:08;100899.36;;;-0.67;100.0
64025;BME280;50266;57.446;26.936;2023-05-07T00:36:08;100896.41;;;-0.59;100.0
64025;BME280;50266;57.446;26.936;2023-05-07T00:37:08;100896.89;;;-0.74;100.0
64025;BME280;50266;57.446;26.936;2023-05-07T00:38:08;100896.75;;;-0.68;100.0
64025;BME280;50266;57.446;26.936;2023-05-07T00:39:08;100900.8;;;-0.79;100.0
64025;BME280;50266;57.446;26.936;2023-05-07T00:40:08;100901.91;;;-0.68;100.0
64025;BME280;50266;57.446;26.936;2023-05-07T00:41:08;100900.37;;;-0.76;100.0
64025;BME280;50266;57.446;26.936;2023-05-07T00:42:08;100901.25;;;-0.83;100.0
64025;BME280;50266;57.446;26.936;2023-05-07T00:43:08;100900.58;;;-0.78;100.0
64025;BME280;50266;57.446;26.936;2023-05-07T00:44:08;100901.23;;;-0.89;100.0
64025;BME280;50266;57.446;26.936;2023-05-07T00:45:08;100901.57;;;-0.85;100.0
64025;BME280;50266;57.446;26.936;2023-05-07T00:46:08;100898.84;;;-0.89;100.0
64025;BME280;50266;57.446;26.936;2023-05-07T00:47:08;100902.3;;;-0.95;100.0
64025;BME280;50266;57.446;26.936;2023-05-07T00:48:08;100906.81;;;-1.13;100.0
64025;BME280;50266;57.446;26.936;2023-05-07T00:49:08;100904.55;;;-1.21;100.0
64025;BME280;50266;57.446;26.936;2023-05-07T00:50:08;100905.01;;;-1.17;100.0
64025;BME280;50266;57.446;26.936;2023-05-07T00:51:09;100907.37;;;-1.12;100.0
64025;BME280;50266;57.446;26.936;2023-05-07T00:52:09;100902.14;;;-1.12;100.0
64025;BME280;50266;57.446;26.936;2023-05-07T00:53:08;100897.67;;;-1.05;100.0
64025;BME280;50266;57.446;26.936;2023-05-07T00:54:08;100903.34;;;-1.13;100.0
64025;BME280;50266;57.446;26.936;2023-05-07T00:55:08;100905.25;;;-1.11;100.0
64025;BME280;50266;57.446;26.936;2023-05-07T00:56:08;100904.81;;;-1.23;100.0
64025;BME280;50266;57.446;26.936;2023-05-07T00:57:11;100904.32;;;-1.24;100.0
64025;BME280;50266;57.446;26.936;2023-05-07T00:58:08;100909.84;;;-1.35;100.0
64025;BME280;50266;57.446;26.936;2023-05-07T00:59:08;100907.52;;;-1.32;100.0
64025;BME280;50266;57.446;26.936;2023-05-07T01:00:08;100908.78;;;-1.53;100.0
64025;BME280;50266;57.446;26.936;2023-05-07T01:01:08;100912.75;;;-1.22;100.0
64025;BME280;50266;57.446;26.936;2023-05-07T01:02:08;100910.93;;;-1.24;100.0
64025;BME280;50266;57.446;26.936;2023-05-07T01:03:08;100916.97;;;-1.32;100.0
64025;BME280;50266;57.446;26.936;2023-05-07T01:04:08;100916.7;;;-1.33;100.0
64025;BME280;50266;57.446;26.936;2023-05-07T01:05:10;100916.77;;;-1.29;100.0
64025;BME280;50266;57.446;26.936;2023-05-07T01:06:08;100916.71;;;-1.24;100.0
64025;BME280;50266;57.446;26.936;2023-05-07T01:07:08;100914.62;;;-1.17;100.0
64025;BME280;50266;57.446;26.936;2023-05-07T01:08:08;100914.67;;;-1.18;100.0
64025;BME280;50266;57.446;26.936;2023-05-07T01:09:08;100918.12;;;-1.12;100.0
64025;BME280;50266;57.446;26.936;2023-05-07T01:10:09;100913.58;;;-1.19;100.0
64025;BME280;50266;57.446;26.936;2023-05-07T01:11:08;100915.47;;;-1.29;100.0
64025;BME280;50266;57.446;26.936;2023-05-07T01:12:08;100916.85;;;-1.24;100.0
64025;BME280;50266;57.446;26.936;2023-05-07T01:13:09;100918.05;;;-1.16;100.0
64025;BME280;50266;57.446;26.936;2023-05-07T01:14:08;100918.27;;;-1.15;100.0
64025;BME280;50266;57.446;26.936;2023-05-07T01:15:08;100915.41;;;-1.23;100.0
64025;BME280;50266;57.446;26.936;2023-05-07T01:16:08;100915.94;;;-1.31;100.0
64025;BME280;50266;57.446;26.936;2023-05-07T01:17:08;100914.97;;;-1.39;100.0
64025;BME280;50266;57.446;26.936;2023-05-07T01:18:08;100915.94;;;-1.33;100.0
64025;BME280;50266;57.446;26.936;2023-05-07T01:19:09;100920.33;;;-1.34;100.0
64025;BME280;50266;57.446;26.936;2023-05-07T01:20:09;100917.87;;;-1.37;100.0
64025;BME280;50266;57.446;26.936;2023-05-07T01:21:08;100919.38;;;-1.28;100.0
64025;BME280;50266;57.446;26.936;2023-05-07T01:22:09;100921.23;;;-1.28;100.0
64025;BME280;50266;57.446;26.936;2023-05-07T01:23:08;100920.45;;;-1.3;100.0
64025;BME280;50266;57.446;26.936;2023-05-07T01:24:08;100924.22;;;-1.37;100.0
64025;BME280;50266;57.446;26.936;2023-05-07T01:25:08;100922.44;;;-1.36;100.0
64025;BME280;50266;57.446;26.936;2023-05-07T01:26:08;100925.34;;;-1.41;100.0
64025;BME280;50266;57.446;26.936;2023-05-07T01:27:08;100928.75;;;-1.42;100.0
64025;BME280;50266;57.446;26.936;2023-05-07T01:28:08;100924.75;;;-1.45;100.0
64025;BME280;50266;57.446;26.936;2023-05-07T01:29:08;100923.36;;;-1.44;100.0
64025;BME280;50266;57.446;26.936;2023-05-07T01:30:09;100926.15;;;-1.47;100.0
64025;BME280;50266;57.446;26.936;2023-05-07T01:31:08;100924.62;;;-1.56;100.0
64025;BME280;50266;57.446;26.936;2023-05-07T01:32:08;100929.88;;;-1.51;100.0
64025;BME280;50266;57.446;26.936;2023-05-07T01:33:09;100929.22;;;-1.51;100.0
64025;BME280;50266;57.446;26.936;2023-05-07T01:34:09;100929.2;;;-1.53;100.0
64025;BME280;50266;57.446;26.936;2023-05-07T01:35:09;100929.91;;;-1.62;100.0
64025;BME280;50266;57.446;26.936;2023-05-07T01:36:09;100930.23;;;-1.61;100.0
64025;BME280;50266;57.446;26.936;2023-05-07T01:37:09;100925.81;;;-1.58;100.0
64025;BME280;50266;57.446;26.936;2023-05-07T01:38:09;100928.59;;;-1.64;100.0
64025;BME280;50266;57.446;26.936;2023-05-07T01:39:09;100932.45;;;-1.74;100.0
64025;BME280;50266;57.446;26.936;2023-05-07T01:40:09;100932.27;;;-1.7;100.0
64025;BME280;50266;57.446;26.936;2023-05-07T01:41:09;100931.06;;;-1.72;100.0
64025;BME280;50266;57.446;26.936;2023-05-07T01:42:09;100926.52;;;-1.7;100.0
64025;BME280;50266;57.446;26.936;2023-05-07T01:43:09;100928.75;;;-1.68;100.0
64025;BME280;50266;57.446;26.936;2023-05-07T01:44:09;100930.09;;;-1.71;100.0
64025;BME280;50266;57.446;26.936;2023-05-07T01:45:09;100926.38;;;-1.75;100.0
64025;BME280;50266;57.446;26.936;2023-05-07T01:46:09;100926.6;;;-1.8;100.0
64025;BME280;50266;57.446;26.936;2023-05-07T01:47:09;100928.97;;;-1.75;100.0
64025;BME280;50266;57.446;26.936;2023-05-07T01:48:09;100927.42;;;-1.86;100.0
64025;BME280;50266;57.446;26.936;2023-05-07T01:49:09;100931.67;;;-1.84;100.0
64025;BME280;50266;57.446;26.936;2023-05-07T01:50:09;100929.09;;;-1.81;100.0
64025;BME280;50266;57.446;26.936;2023-05-07T01:51:09;100929.78;;;-1.87;100.0
64025;BME280;50266;57.446;26.936;2023-05-07T01:52:10;100928.68;;;-1.89;100.0
64025;BME280;50266;57.446;26.936;2023-05-07T01:53:09;100929.39;;;-1.84;100.0
64025;BME280;50266;57.446;26.936;2023-05-07T01:54:09;100930.16;;;-1.94;100.0
64025;BME280;50266;57.446;26.936;2023-05-07T01:55:09;100930.69;;;-1.97;100.0
64025;BME280;50266;57.446;26.936;2023-05-07T01:56:09;100929.52;;;-1.93;100.0
64025;BME280;50266;57.446;26.936;2023-05-07T01:57:09;100929.22;;;-1.79;100.0
64025;BME280;50266;57.446;26.936;2023-05-07T01:58:09;100932.61;;;-1.86;100.0
64025;BME280;50266;57.446;26.936;2023-05-07T01:59:09;100930.06;;;-1.76;100.0
64025;BME280;50266;57.446;26.936;2023-05-07T02:00:09;100930.52;;;-1.79;100.0
64025;BME280;50266;57.446;26.936;2023-05-07T02:01:09;100927.77;;;-1.7;100.0
64025;BME280;50266;57.446;26.936;2023-05-07T02:02:09;100931.45;;;-1.7;100.0
64025;BME280;50266;57.446;26.936;2023-05-07T02:03:09;100931.17;;;-1.79;100.0
64025;BME280;50266;57.446;26.936;2023-05-07T02:04:09;100934.83;;;-1.83;100.0
64025;BME280;50266;57.446;26.936;2023-05-07T02:05:09;100931.24;;;-1.95;100.0
64025;BME280;50266;57.446;26.936;2023-05-07T02:06:09;100926.61;;;-2.07;100.0
64025;BME280;50266;57.446;26.936;2023-05-07T02:07:09;100928.02;;;-1.92;100.0
64025;BME280;50266;57.446;26.936;2023-05-07T02:08:09;100929.48;;;-1.91;100.0
64025;BME280;50266;57.446;26.936;2023-05-07T02:09:09;100932.31;;;-1.97;100.0
64025;BME280;50266;57.446;26.936;2023-05-07T02:10:09;100933.36;;;-1.88;100.0
64025;BME280;50266;57.446;26.936;2023-05-07T02:11:09;100929.69;;;-1.92;100.0
64025;BME280;50266;57.446;26.936;2023-05-07T02:12:09;100935.66;;;-1.82;100.0
64025;BME280;50266;57.446;26.936;2023-05-07T02:13:09;100931.66;;;-1.89;100.0
64025;BME280;50266;57.446;26.936;2023-05-07T02:14:09;100934.7;;;-1.9;100.0
64025;BME280;50266;57.446;26.936;2023-05-07T02:15:10;100935.13;;;-1.9;100.0
64025;BME280;50266;57.446;26.936;2023-05-07T02:16:09;100939.2;;;-1.96;100.0
64025;BME280;50266;57.446;26.936;2023-05-07T02:17:09;100935.73;;;-1.9;100.0
64025;BME280;50266;57.446;26.936;2023-05-07T02:18:10;100938.73;;;-1.95;100.0
64025;BME280;50266;57.446;26.936;2023-05-07T02:19:10;100938.81;;;-1.92;100.0
64025;BME280;50266;57.446;26.936;2023-05-07T02:20:10;100939.97;;;-1.96;100.0
64025;BME280;50266;57.446;26.936;2023-05-07T02:21:10;100938.15;;;-2.15;100.0
64025;BME280;50266;57.446;26.936;2023-05-07T02:22:10;100941.53;;;-2.03;100.0
64025;BME280;50266;57.446;26.936;2023-05-07T02:23:10;100939.42;;;-2.12;100.0
64025;BME280;50266;57.446;26.936;2023-05-07T02:24:10;100937.48;;;-2.11;100.0
64025;BME280;50266;57.446;26.936;2023-05-07T02:25:10;100947.37;;;-2.21;100.0
64025;BME280;50266;57.446;26.936;2023-05-07T02:26:10;100943.99;;;-2.17;100.0
64025;BME280;50266;57.446;26.936;2023-05-07T02:27:10;100945.28;;;-2.07;100.0
64025;BME280;50266;57.446;26.936;2023-05-07T02:28:10;100945.37;;;-2.09;100.0
64025;BME280;50266;57.446;26.936;2023-05-07T02:29:10;100942.47;;;-2.12;100.0
64025;BME280;50266;57.446;26.936;2023-05-07T02:30:10;100946.84;;;-2.09;100.0
64025;BME280;50266;57.446;26.936;2023-05-07T02:31:10;100948.14;;;-2.09;100.0
64025;BME280;50266;57.446;26.936;2023-05-07T02:32:10;100952.79;;;-2.07;100.0
64025;BME280;50266;57.446;26.936;2023-05-07T02:33:10;100945.28;;;-2.03;100.0
64025;BME280;50266;57.446;26.936;2023-05-07T02:34:10;100948.16;;;-1.9;100.0
64025;BME280;50266;57.446;26.936;2023-05-07T02:35:10;100951.37;;;-1.79;100.0
64025;BME280;50266;57.446;26.936;2023-05-07T02:36:10;100951.05;;;-1.78;100.0
64025;BME280;50266;57.446;26.936;2023-05-07T02:37:10;100952.38;;;-1.75;100.0
64025;BME280;50266;57.446;26.936;2023-05-07T02:38:10;100950.34;;;-1.7;100.0
64025;BME280;50266;57.446;26.936;2023-05-07T02:39:10;100949.8;;;-1.79;100.0
64025;BME280;50266;57.446;26.936;2023-05-07T02:40:10;100958.27;;;-1.78;100.0
64025;BME280;50266;57.446;26.936;2023-05-07T02:41:10;100955.09;;;-1.68;100.0
64025;BME280;50266;57.446;26.936;2023-05-07T02:42:10;100955.5;;;-1.78;100.0
64025;BME280;50266;57.446;26.936;2023-05-07T02:43:10;100948.91;;;-1.74;100.0
64025;BME280;50266;57.446;26.936;2023-05-07T02:44:10;100958.05;;;-1.71;100.0
64025;BME280;50266;57.446;26.936;2023-05-07T02:45:10;100954.09;;;-1.78;100.0
64025;BME280;50266;57.446;26.936;2023-05-07T02:46:10;100955.45;;;-1.71;100.0
64025;BME280;50266;57.446;26.936;2023-05-07T02:47:10;100955.0;;;-1.66;100.0
64025;BME280;50266;57.446;26.936;2023-05-07T02:48:10;100954.91;;;-1.7;100.0
64025;BME280;50266;57.446;26.936;2023-05-07T02:49:10;100954.89;;;-1.66;100.0
64025;BME280;50266;57.446;26.936;2023-05-07T02:50:10;100956.27;;;-1.59;100.0
64025;BME280;50266;57.446;26.936;2023-05-07T02:51:10;100957.26;;;-1.57;100.0
64025;BME280;50266;57.446;26.936;2023-05-07T02:52:10;100956.52;;;-1.53;100.0
64025;BME280;50266;57.446;26.936;2023-05-07T02:53:10;100956.5;;;-1.44;100.0
64025;BME280;50266;57.446;26.936;2023-05-07T02:54:10;100962.62;;;-1.37;100.0
64025;BME280;50266;57.446;26.936;2023-05-07T02:55:10;100956.92;;;-1.38;100.0
64025;BME280;50266;57.446;26.936;2023-05-07T02:56:10;100962.43;;;-1.48;100.0
64025;BME280;50266;57.446;26.936;2023-05-07T02:57:10;100961.75;;;-1.3;100.0
64025;BME280;50266;57.446;26.936;2023-05-07T02:58:10;100961.23;;;-1.35;100.0
64025;BME280;50266;57.446;26.936;2023-05-07T02:59:10;100965.67;;;-1.38;100.0
64025;BME280;50266;57.446;26.936;2023-05-07T03:00:14;100968.38;;;-1.39;100.0
64025;BME280;50266;57.446;26.936;2023-05-07T03:01:11;100969.44;;;-1.47;100.0
64025;BME280;50266;57.446;26.936;2023-05-07T03:02:11;100969.97;;;-1.36;100.0
64025;BME280;50266;57.446;26.936;2023-05-07T03:03:11;100972.69;;;-1.27;100.0
64025;BME280;50266;57.446;26.936;2023-05-07T03:04:11;100969.34;;;-1.24;100.0
64025;BME280;50266;57.446;26.936;2023-05-07T03:05:11;100968.38;;;-1.16;100.0
64025;BME280;50266;57.446;26.936;2023-05-07T03:06:11;100967.66;;;-1.1;100.0
64025;BME280;50266;57.446;26.936;2023-05-07T03:07:11;100969.91;;;-1.15;100.0
64025;BME280;50266;57.446;26.936;2023-05-07T03:08:11;100972.23;;;-1.08;100.0
64025;BME280;50266;57.446;26.936;2023-05-07T03:09:11;100972.16;;;-1.1;100.0
64025;BME280;50266;57.446;26.936;2023-05-07T03:10:11;100972.62;;;-1.15;100.0
64025;BME280;50266;57.446;26.936;2023-05-07T03:11:11;100972.13;;;-1.15;100.0
64025;BME280;50266;57.446;26.936;2023-05-07T03:12:11;100973.12;;;-1.13;100.0
64025;BME280;50266;57.446;26.936;2023-05-07T03:13:11;100970.8;;;-1.19;100.0
64025;BME280;50266;57.446;26.936;2023-05-07T03:14:11;100969.92;;;-1.11;100.0
64025;BME280;50266;57.446;26.936;2023-05-07T03:15:11;100970.77;;;-1.01;100.0
64025;BME280;50266;57.446;26.936;2023-05-07T03:16:11;100973.3;;;-0.93;100.0
64025;BME280;50266;57.446;26.936;2023-05-07T03:17:11;100973.55;;;-0.89;100.0
64025;BME280;50266;57.446;26.936;2023-05-07T03:18:11;100976.61;;;-0.95;100.0
64025;BME280;50266;57.446;26.936;2023-05-07T03:19:11;100975.45;;;-0.88;100.0
64025;BME280;50266;57.446;26.936;2023-05-07T03:20:11;100978.66;;;-0.81;100.0
64025;BME280;50266;57.446;26.936;2023-05-07T03:21:11;100978.22;;;-0.82;100.0
64025;BME280;50266;57.446;26.936;2023-05-07T03:22:11;100978.95;;;-0.84;100.0
64025;BME280;50266;57.446;26.936;2023-05-07T03:23:11;100979.98;;;-0.75;100.0
64025;BME280;50266;57.446;26.936;2023-05-07T03:24:11;100978.71;;;-0.68;100.0
64025;BME280;50266;57.446;26.936;2023-05-07T03:25:11;100984.64;;;-0.67;100.0
64025;BME280;50266;57.446;26.936;2023-05-07T03:26:11;100981.72;;;-0.64;100.0
64025;BME280;50266;57.446;26.936;2023-05-07T03:27:11;100978.45;;;-0.66;100.0
64025;BME280;50266;57.446;26.936;2023-05-07T03:28:11;100980.77;;;-0.71;100.0
64025;BME280;50266;57.446;26.936;2023-05-07T03:29:11;100978.12;;;-0.67;100.0
64025;BME280;50266;57.446;26.936;2023-05-07T03:30:12;100978.41;;;-0.63;100.0
64025;BME280;50266;57.446;26.936;2023-05-07T03:31:11;100982.16;;;-0.53;100.0
64025;BME280;50266;57.446;26.936;2023-05-07T03:32:11;100976.88;;;-0.56;100.0
64025;BME280;50266;57.446;26.936;2023-05-07T03:33:11;100982.66;;;-0.5;100.0
64025;BME280;50266;57.446;26.936;2023-05-07T03:34:12;100981.04;;;-0.48;100.0
64025;BME280;50266;57.446;26.936;2023-05-07T03:35:11;100986.77;;;-0.44;100.0
64025;BME280;50266;57.446;26.936;2023-05-07T03:36:11;100983.28;;;-0.45;100.0
64025;BME280;50266;57.446;26.936;2023-05-07T03:37:11;100984.19;;;-0.4;100.0
64025;BME280;50266;57.446;26.936;2023-05-07T03:38:11;100985.45;;;-0.35;100.0
64025;BME280;50266;57.446;26.936;2023-05-07T03:39:11;100985.75;;;-0.26;100.0
64025;BME280;50266;57.446;26.936;2023-05-07T03:40:11;100986.12;;;-0.26;100.0
64025;BME280;50266;57.446;26.936;2023-05-07T03:41:11;100988.58;;;-0.27;100.0
64025;BME280;50266;57.446;26.936;2023-05-07T03:42:11;100984.49;;;-0.26;100.0
64025;BME280;50266;57.446;26.936;2023-05-07T03:43:11;100987.0;;;-0.25;100.0
64025;BME280;50266;57.446;26.936;2023-05-07T03:44:11;100987.06;;;-0.24;100.0
64025;BME280;50266;57.446;26.936;2023-05-07T03:45:11;100990.72;;;-0.2;100.0
64025;BME280;50266;57.446;26.936;2023-05-07T03:46:11;100989.54;;;-0.18;100.0
64025;BME280;50266;57.446;26.936;2023-05-07T03:47:11;100993.74;;;-0.14;100.0
64025;BME280;50266;57.446;26.936;2023-05-07T03:48:11;100993.58;;;-0.13;100.0
64025;BME280;50266;57.446;26.936;2023-05-07T03:49:11;100995.44;;;-0.09;100.0
64025;BME280;50266;57.446;26.936;2023-05-07T03:50:11;100996.54;;;-0.02;100.0
64025;BME280;50266;57.446;26.936;2023-05-07T03:51:11;101000.19;;;-0.03;100.0
64025;BME280;50266;57.446;26.936;2023-05-07T03:52:11;100995.94;;;-0.01;100.0
64025;BME280;50266;57.446;26.936;2023-05-07T03:53:11;101000.62;;;0.03;100.0
64025;BME280;50266;57.446;26.936;2023-05-07T03:54:11;100998.94;;;0.07;100.0
64025;BME280;50266;57.446;26.936;2023-05-07T03:55:11;100997.41;;;0.06;100.0
64025;BME280;50266;57.446;26.936;2023-05-07T03:56:11;101001.12;;;0.1;100.0
64025;BME280;50266;57.446;26.936;2023-05-07T03:57:11;100998.3;;;0.12;100.0
64025;BME280;50266;57.446;26.936;2023-05-07T03:58:11;100998.3;;;0.19;100.0
64025;BME280;50266;57.446;26.936;2023-05-07T03:59:12;101002.71;;;0.19;100.0
64025;BME280;50266;57.446;26.936;2023-05-07T04:00:12;101005.59;;;0.2;100.0
64025;BME280;50266;57.446;26.936;2023-05-07T04:01:12;101007.42;;;0.29;100.0
64025;BME280;50266;57.446;26.936;2023-05-07T04:02:11;101007.2;;;0.34;100.0
64025;BME280;50266;57.446;26.936;2023-05-07T04:03:12;101006.55;;;0.37;100.0
64025;BME280;50266;57.446;26.936;2023-05-07T04:04:11;101011.52;;;0.37;100.0
64025;BME280;50266;57.446;26.936;2023-05-07T04:05:12;101011.56;;;0.38;100.0
64025;BME280;50266;57.446;26.936;2023-05-07T04:06:12;101016.33;;;0.45;100.0
64025;BME280;50266;57.446;26.936;2023-05-07T04:07:12;101015.19;;;0.56;100.0
64025;BME280;50266;57.446;26.936;2023-05-07T04:08:12;101018.95;;;0.53;100.0
64025;BME280;50266;57.446;26.936;2023-05-07T04:09:12;101015.56;;;0.56;100.0
64025;BME280;50266;57.446;26.936;2023-05-07T04:10:12;101015.51;;;0.6;100.0
64025;BME280;50266;57.446;26.936;2023-05-07T04:11:12;101017.0;;;0.7;100.0
64025;BME280;50266;57.446;26.936;2023-05-07T04:12:12;101016.28;;;0.75;100.0
64025;BME280;50266;57.446;26.936;2023-05-07T04:13:12;101015.29;;;0.81;100.0
64025;BME280;50266;57.446;26.936;2023-05-07T04:14:12;101019.83;;;0.87;100.0
64025;BME280;50266;57.446;26.936;2023-05-07T04:15:12;101019.05;;;0.96;100.0
64025;BME280;50266;57.446;26.936;2023-05-07T04:16:12;101020.41;;;1.01;100.0
64025;BME280;50266;57.446;26.936;2023-05-07T04:17:12;101021.55;;;1.1;100.0
64025;BME280;50266;57.446;26.936;2023-05-07T04:18:12;101021.91;;;1.16;100.0
64025;BME280;50266;57.446;26.936;2023-05-07T04:19:12;101023.88;;;1.16;100.0
64025;BME280;50266;57.446;26.936;2023-05-07T04:20:15;101021.27;;;1.13;100.0
64025;BME280;50266;57.446;26.936;2023-05-07T04:21:15;101020.7;;;1.19;100.0
64025;BME280;50266;57.446;26.936;2023-05-07T04:22:12;101021.52;;;1.28;100.0
64025;BME280;50266;57.446;26.936;2023-05-07T04:23:12;101024.39;;;1.35;100.0
64025;BME280;50266;57.446;26.936;2023-05-07T04:24:12;101019.57;;;1.39;100.0
64025;BME280;50266;57.446;26.936;2023-05-07T04:25:12;101024.34;;;1.45;100.0
64025;BME280;50266;57.446;26.936;2023-05-07T04:26:12;101023.82;;;1.47;100.0
64025;BME280;50266;57.446;26.936;2023-05-07T04:27:12;101021.45;;;1.52;100.0
64025;BME280;50266;57.446;26.936;2023-05-07T04:28:12;101023.62;;;1.54;100.0
64025;BME280;50266;57.446;26.936;2023-05-07T04:29:12;101027.08;;;1.64;100.0
64025;BME280;50266;57.446;26.936;2023-05-07T04:30:12;101024.83;;;1.71;100.0
64025;BME280;50266;57.446;26.936;2023-05-07T04:31:12;101024.55;;;1.73;100.0
64025;BME280;50266;57.446;26.936;2023-05-07T04:32:12;101024.48;;;1.85;100.0
64025;BME280;50266;57.446;26.936;2023-05-07T04:33:13;101023.11;;;1.86;100.0
64025;BME280;50266;57.446;26.936;2023-05-07T04:34:12;101029.29;;;1.88;100.0
64025;BME280;50266;57.446;26.936;2023-05-07T04:35:12;101029.34;;;1.88;100.0
64025;BME280;50266;57.446;26.936;2023-05-07T04:36:12;101029.62;;;1.84;100.0
64025;BME280;50266;57.446;26.936;2023-05-07T04:37:12;101026.64;;;1.93;100.0
64025;BME280;50266;57.446;26.936;2023-05-07T04:38:12;101032.02;;;2.08;100.0
64025;BME280;50266;57.446;26.936;2023-05-07T04:39:12;101030.88;;;2.05;100.0
64025;BME280;50266;57.446;26.936;2023-05-07T04:40:12;101030.38;;;2.08;100.0
64025;BME280;50266;57.446;26.936;2023-05-07T04:41:12;101024.17;;;2.15;100.0
64025;BME280;50266;57.446;26.936;2023-05-07T04:42:15;101028.42;;;2.06;100.0
64025;BME280;50266;57.446;26.936;2023-05-07T04:43:12;101030.59;;;2.12;100.0
64025;BME280;50266;57.446;26.936;2023-05-07T04:44:12;101026.7;;;2.14;100.0
64025;BME280;50266;57.446;26.936;2023-05-07T04:45:12;101031.51;;;2.21;100.0
64025;BME280;50266;57.446;26.936;2023-05-07T04:46:12;101026.23;;;2.27;100.0
64025;BME280;50266;57.446;26.936;2023-05-07T04:47:12;101026.72;;;2.29;100.0
64025;BME280;50266;57.446;26.936;2023-05-07T04:48:12;101026.83;;;2.26;100.0
64025;BME280;50266;57.446;26.936;2023-05-07T04:49:12;101030.64;;;2.31;100.0
64025;BME280;50266;57.446;26.936;2023-05-07T04:50:12;101028.55;;;2.41;100.0
64025;BME280;50266;57.446;26.936;2023-05-07T04:51:12;101030.98;;;2.44;100.0
64025;BME280;50266;57.446;26.936;2023-05-07T04:52:12;101032.31;;;2.51;100.0
64025;BME280;50266;57.446;26.936;2023-05-07T04:53:12;101031.55;;;2.64;100.0
64025;BME280;50266;57.446;26.936;2023-05-07T04:54:12;101032.17;;;2.55;100.0
64025;BME280;50266;57.446;26.936;2023-05-07T04:55:12;101032.92;;;2.5;100.0
64025;BME280;50266;57.446;26.936;2023-05-07T04:56:12;101040.73;;;2.65;100.0
64025;BME280;50266;57.446;26.936;2023-05-07T04:57:13;101038.95;;;2.62;100.0
64025;BME280;50266;57.446;26.936;2023-05-07T04:58:12;101038.52;;;2.71;100.0
64025;BME280;50266;57.446;26.936;2023-05-07T04:59:12;101038.67;;;2.7;100.0
64025;BME280;50266;57.446;26.936;2023-05-07T05:00:13;101037.12;;;2.8;100.0
64025;BME280;50266;57.446;26.936;2023-05-07T05:01:12;101038.02;;;2.84;100.0
64025;BME280;50266;57.446;26.936;2023-05-07T05:02:13;101038.05;;;2.94;100.0
64025;BME280;50266;57.446;26.936;2023-05-07T05:03:13;101036.3;;;3.0;100.0
64025;BME280;50266;57.446;26.936;2023-05-07T05:04:13;101036.27;;;2.98;100.0
64025;BME280;50266;57.446;26.936;2023-05-07T05:05:12;101039.01;;;3.15;100.0
64025;BME280;50266;57.446;26.936;2023-05-07T05:06:12;101040.31;;;3.03;100.0
64025;BME280;50266;57.446;26.936;2023-05-07T05:07:13;101036.98;;;3.08;100.0
64025;BME280;50266;57.446;26.936;2023-05-07T05:08:13;101040.25;;;3.1;100.0
64025;BME280;50266;57.446;26.936;2023-05-07T05:09:13;101039.98;;;3.21;100.0
64025;BME280;50266;57.446;26.936;2023-05-07T05:10:13;101042.11;;;3.32;100.0
64025;BME280;50266;57.446;26.936;2023-05-07T05:11:13;101036.58;;;3.32;100.0